createdAt,value
2019-05-12T00:01:28.789Z,0
2019-05-12T00:02:59.295Z,0
2019-05-12T00:04:29.809Z,0
2019-05-12T00:06:00.318Z,0
2019-05-12T00:08:26.532Z,0
2019-05-12T00:09:57.108Z,0
2019-05-12T00:11:27.548Z,0
2019-05-12T00:14:28.576Z,0
2019-05-12T00:15:59.090Z,0
2019-05-12T00:17:29.599Z,0
2019-05-12T00:19:00.112Z,0
2019-05-12T00:22:01.143Z,0
2019-05-12T00:23:14.311Z,0
2019-05-12T00:24:27.593Z,0
2019-05-12T00:25:58.001Z,0
2019-05-12T00:27:28.513Z,0
2019-05-12T00:28:59.024Z,0
2019-05-12T00:30:29.535Z,0
2019-05-12T00:32:00.047Z,0
2019-05-12T00:33:30.571Z,0
2019-05-12T00:35:01.074Z,0
2019-05-12T00:36:31.601Z,0
2019-05-12T00:39:15.013Z,0
2019-05-12T00:40:28.339Z,0
2019-05-12T00:41:58.828Z,0
2019-05-12T00:43:29.373Z,0
2019-05-12T00:44:59.842Z,0
2019-05-12T00:49:31.392Z,0
2019-05-12T00:51:01.906Z,0
2019-05-12T00:52:32.405Z,0
2019-05-12T00:54:02.924Z,0
2019-05-12T00:55:16.099Z,0
2019-05-12T00:56:29.271Z,0
2019-05-12T00:57:59.788Z,0
2019-05-12T00:59:30.293Z,0
2019-05-12T01:01:00.801Z,0
2019-05-12T01:02:31.322Z,0
2019-05-12T01:04:01.831Z,0
2019-05-12T01:07:02.851Z,0
2019-05-12T01:08:33.376Z,0
2019-05-12T01:10:03.899Z,0
2019-05-12T01:11:17.059Z,0
2019-05-12T01:12:30.236Z,0
2019-05-12T01:15:31.253Z,0
2019-05-12T01:17:01.784Z,0
2019-05-12T01:18:32.276Z,0
2019-05-12T01:20:02.823Z,0
2019-05-12T01:21:33.030Z,0
2019-05-12T01:23:03.886Z,0
2019-05-12T01:24:34.330Z,0
2019-05-12T01:26:04.841Z,0
2019-05-12T01:27:18.016Z,0
2019-05-12T01:28:31.198Z,0
2019-05-12T01:30:01.705Z,0
2019-05-12T01:31:32.212Z,0
2019-05-12T01:36:03.077Z,0
2019-05-12T01:37:34.273Z,0
2019-05-12T01:40:35.295Z,0
2019-05-12T01:42:05.804Z,0
2019-05-12T01:43:18.984Z,0
2019-05-12T01:44:32.157Z,0
2019-05-12T01:47:33.183Z,0
2019-05-12T01:50:34.205Z,0
2019-05-12T01:52:04.751Z,0
2019-05-12T01:53:35.228Z,0
2019-05-12T01:56:36.258Z,0
2019-05-12T01:58:06.770Z,0
2019-05-12T01:59:19.798Z,0
2019-05-12T02:00:32.970Z,0
2019-05-12T02:02:03.491Z,0
2019-05-12T02:05:04.521Z,0
2019-05-12T02:06:35.026Z,0
2019-05-12T02:08:05.542Z,0
2019-05-12T02:09:36.049Z,0
2019-05-12T02:15:20.621Z,0
2019-05-12T02:16:33.793Z,0
2019-05-12T02:18:04.309Z,0
2019-05-12T02:19:34.081Z,0
2019-05-12T02:21:05.337Z,0
2019-05-12T02:25:36.864Z,0
2019-05-12T02:27:07.381Z,0
2019-05-12T02:28:37.946Z,0
2019-05-12T02:30:08.400Z,0
2019-05-12T02:32:34.611Z,0
2019-05-12T02:35:35.642Z,0
2019-05-12T02:37:06.149Z,0
2019-05-12T02:38:36.665Z,0
2019-05-12T02:40:07.187Z,0
2019-05-12T02:41:37.690Z,0
2019-05-12T02:43:08.197Z,0
2019-05-12T02:44:38.741Z,0
2019-05-12T02:46:09.240Z,0
2019-05-12T02:48:35.429Z,0
2019-05-12T02:51:36.498Z,0
2019-05-12T02:53:07.014Z,0
2019-05-12T02:54:37.475Z,0
2019-05-12T02:56:07.998Z,0
2019-05-12T02:57:38.507Z,0
2019-05-12T02:59:09.000Z,0
2019-05-12T03:02:10.040Z,4
2019-05-12T03:03:23.218Z,4
2019-05-12T03:04:36.390Z,4
2019-05-12T03:06:06.902Z,0
2019-05-12T03:07:37.413Z,0
2019-05-12T03:09:07.935Z,4
2019-05-12T03:10:38.440Z,4
2019-05-12T03:13:39.467Z,4
2019-05-12T03:18:11.003Z,4
2019-05-12T03:19:24.176Z,8
2019-05-12T03:20:37.366Z,8
2019-05-12T03:22:07.874Z,8
2019-05-12T03:23:38.000Z,8
2019-05-12T03:32:41.456Z,16
2019-05-12T03:34:11.966Z,16
2019-05-12T03:35:25.147Z,16
2019-05-12T03:36:38.031Z,16
2019-05-12T03:38:08.830Z,20
2019-05-12T03:41:09.866Z,24
2019-05-12T03:42:40.366Z,24
2019-05-12T03:44:10.876Z,28
2019-05-12T03:45:41.388Z,32
2019-05-12T03:47:11.898Z,36
2019-05-12T03:48:42.418Z,40
2019-05-12T03:50:12.093Z,40
2019-05-12T03:51:26.121Z,44
2019-05-12T03:52:39.027Z,48
2019-05-12T03:55:40.302Z,52
2019-05-12T03:57:10.811Z,56
2019-05-12T04:00:11.084Z,68
2019-05-12T04:04:43.371Z,84
2019-05-12T04:06:13.882Z,92
2019-05-12T04:08:40.009Z,100
2019-05-12T04:10:10.704Z,108
2019-05-12T04:11:41.124Z,116
2019-05-12T04:13:11.633Z,120
2019-05-12T04:14:42.146Z,128
2019-05-12T04:16:12.737Z,136
2019-05-12T04:17:43.169Z,140
2019-05-12T04:19:13.681Z,148
2019-05-12T04:23:27.761Z,168
2019-05-12T04:24:40.925Z,176
2019-05-12T04:26:11.429Z,184
2019-05-12T04:29:12.537Z,196
2019-05-12T04:30:42.981Z,204
2019-05-12T04:32:13.477Z,212
2019-05-12T04:33:43.992Z,220
2019-05-12T04:35:14.581Z,228
2019-05-12T04:36:45.019Z,232
2019-05-12T04:39:28.592Z,244
2019-05-12T04:40:41.769Z,252
2019-05-12T04:42:12.025Z,256
2019-05-12T04:43:42.761Z,268
2019-05-12T04:45:13.312Z,272
2019-05-12T04:49:44.810Z,292
2019-05-12T04:51:15.319Z,300
2019-05-12T04:52:45.830Z,308
2019-05-12T04:55:29.373Z,320
2019-05-12T04:58:13.068Z,324
2019-05-12T04:59:43.575Z,328
2019-05-12T05:02:44.626Z,328
2019-05-12T05:04:15.111Z,324
2019-05-12T05:05:45.630Z,320
2019-05-12T05:07:16.142Z,316
2019-05-12T05:08:46.657Z,320
2019-05-12T05:11:30.198Z,328
2019-05-12T05:12:43.376Z,332
2019-05-12T05:14:13.887Z,340
2019-05-12T05:17:14.914Z,356
2019-05-12T05:18:45.041Z,364
2019-05-12T05:20:15.951Z,372
2019-05-12T05:21:46.454Z,388
2019-05-12T05:23:16.955Z,404
2019-05-12T05:24:47.474Z,416
2019-05-12T05:26:17.097Z,436
2019-05-12T05:27:31.162Z,452
2019-05-12T05:28:44.033Z,456
2019-05-12T05:31:45.042Z,472
2019-05-12T05:33:15.874Z,488
2019-05-12T05:34:46.394Z,496
2019-05-12T05:36:16.925Z,500
2019-05-12T05:39:17.928Z,500
2019-05-12T05:40:48.438Z,496
2019-05-12T05:42:18.960Z,492
2019-05-12T05:43:32.128Z,492
2019-05-12T05:46:15.809Z,492
2019-05-12T05:47:46.317Z,496
2019-05-12T05:50:47.348Z,500
2019-05-12T05:52:17.863Z,504
2019-05-12T05:59:32.942Z,584
2019-05-12T06:00:46.120Z,596
2019-05-12T06:02:16.633Z,600
2019-05-12T06:03:47.156Z,596
2019-05-12T06:06:48.165Z,624
2019-05-12T06:08:18.674Z,664
2019-05-12T06:09:49.194Z,704
2019-05-12T06:11:19.070Z,756
2019-05-12T06:12:50.232Z,788
2019-05-12T06:14:20.723Z,804
2019-05-12T06:15:33.899Z,816
2019-05-12T06:16:47.008Z,832
2019-05-12T06:18:17.587Z,848
2019-05-12T06:19:48.096Z,852
2019-05-12T06:21:18.617Z,872
2019-05-12T06:24:19.640Z,860
2019-05-12T06:28:51.180Z,964
2019-05-12T06:30:21.068Z,968
2019-05-12T06:31:34.866Z,996
2019-05-12T06:34:18.553Z,1004
2019-05-12T06:35:49.059Z,1052
2019-05-12T06:38:50.087Z,1108
2019-05-12T06:40:20.600Z,1088
2019-05-12T06:43:21.628Z,1060
2019-05-12T06:44:52.148Z,1012
2019-05-12T06:48:48.713Z,928
2019-05-12T06:50:19.228Z,952
2019-05-12T06:53:20.251Z,924
2019-05-12T06:56:21.279Z,1040
2019-05-12T06:57:51.079Z,1208
2019-05-12T06:59:22.305Z,1276
2019-05-12T07:00:52.814Z,1312
2019-05-12T07:02:23.331Z,1356
2019-05-12T07:03:36.512Z,1404
2019-05-12T07:04:49.746Z,1432
2019-05-12T07:07:50.744Z,1488
2019-05-12T07:09:21.225Z,1468
2019-05-12T07:10:51.744Z,1468
2019-05-12T07:12:22.002Z,1476
2019-05-12T07:15:23.279Z,1556
2019-05-12T07:16:53.803Z,1560
2019-05-12T07:18:24.295Z,1608
2019-05-12T07:19:37.478Z,1612
2019-05-12T07:20:50.645Z,1620
2019-05-12T07:23:51.680Z,1636
2019-05-12T07:26:52.788Z,1660
2019-05-12T07:28:23.203Z,1708
2019-05-12T07:29:53.721Z,1760
2019-05-12T07:31:24.229Z,1788
2019-05-12T07:32:54.074Z,1592
2019-05-12T07:34:25.267Z,1640
2019-05-12T07:35:38.449Z,1852
2019-05-12T07:36:51.608Z,1912
2019-05-12T07:38:22.011Z,1940
2019-05-12T07:39:52.750Z,1960
2019-05-12T07:42:53.659Z,2172
2019-05-12T07:45:54.682Z,2528
2019-05-12T07:47:25.189Z,2688
2019-05-12T07:50:26.221Z,3072
2019-05-12T07:51:39.394Z,2656
2019-05-12T07:52:52.579Z,3092
2019-05-12T07:54:23.086Z,3536
2019-05-12T07:55:53.598Z,3788
2019-05-12T07:57:24.107Z,3764
2019-05-12T07:58:54.615Z,3876
2019-05-12T08:00:25.137Z,3920
2019-05-12T08:01:55.643Z,4164
2019-05-12T08:04:56.674Z,4480
2019-05-12T08:06:27.188Z,4508
2019-05-12T08:07:40.221Z,4660
2019-05-12T08:10:24.014Z,5068
2019-05-12T08:14:55.444Z,5512
2019-05-12T08:16:25.962Z,5728
2019-05-12T08:19:26.982Z,5608
2019-05-12T08:20:57.495Z,6172
2019-05-12T08:22:28.026Z,5652
2019-05-12T08:23:41.187Z,6176
2019-05-12T08:24:54.036Z,6760
2019-05-12T08:26:24.897Z,7228
2019-05-12T08:27:55.388Z,7712
2019-05-12T08:29:25.897Z,6964
2019-05-12T08:32:26.957Z,8800
2019-05-12T08:33:57.004Z,8896
2019-05-12T08:35:27.950Z,7232
2019-05-12T08:36:58.460Z,8928
2019-05-12T08:38:28.971Z,9508
2019-05-12T08:39:42.146Z,9672
2019-05-12T08:40:55.329Z,9592
2019-05-12T08:42:25.845Z,9380
2019-05-12T08:43:56.682Z,9388
2019-05-12T08:45:26.863Z,8624
2019-05-12T08:46:57.368Z,9128
2019-05-12T08:48:27.885Z,7336
2019-05-12T08:49:58.039Z,8436
2019-05-12T08:51:28.913Z,7748
2019-05-12T08:54:29.930Z,8660
2019-05-12T08:56:56.148Z,6864
2019-05-12T08:58:26.664Z,8312
2019-05-12T08:59:57.185Z,8360
2019-05-12T09:02:58.194Z,8668
2019-05-12T09:04:28.721Z,8504
2019-05-12T09:05:59.223Z,7904
2019-05-12T09:07:29.073Z,8316
2019-05-12T09:09:00.247Z,7944
2019-05-12T09:10:30.756Z,6812
2019-05-12T09:11:43.936Z,7408
2019-05-12T09:12:57.123Z,6848
2019-05-12T09:14:27.621Z,6416
2019-05-12T09:15:58.137Z,7036
2019-05-12T09:17:28.652Z,7140
2019-05-12T09:18:59.167Z,7628
2019-05-12T09:23:30.708Z,8248
2019-05-12T09:26:31.073Z,7976
2019-05-12T09:27:44.900Z,8548
2019-05-12T09:33:29.620Z,8592
2019-05-12T09:36:30.661Z,6876
2019-05-12T09:38:01.000Z,8100
2019-05-12T09:39:31.677Z,7280
2019-05-12T09:41:02.194Z,6892
2019-05-12T09:42:32.709Z,5720
2019-05-12T09:43:45.088Z,5860
2019-05-12T09:46:29.574Z,8616
2019-05-12T09:51:01.108Z,8412
2019-05-12T09:52:31.625Z,7920
2019-05-12T09:55:32.642Z,7992
2019-05-12T09:57:03.163Z,8564
2019-05-12T09:58:33.067Z,8512
2019-05-12T09:59:46.861Z,8476
2019-05-12T10:02:30.536Z,7956
2019-05-12T10:04:01.139Z,7980
2019-05-12T10:05:31.583Z,8196
2019-05-12T10:07:02.085Z,8184
2019-05-12T10:11:33.062Z,8032
2019-05-12T10:13:04.142Z,7936
2019-05-12T10:14:34.648Z,7896
2019-05-12T10:15:47.828Z,7960
2019-05-12T10:17:00.867Z,7864
2019-05-12T10:18:31.400Z,7864
2019-05-12T10:20:01.885Z,7752
2019-05-12T10:21:32.405Z,7656
2019-05-12T10:24:33.432Z,7508
2019-05-12T10:26:03.947Z,7312
2019-05-12T10:27:34.455Z,7144
2019-05-12T10:29:05.082Z,7032
2019-05-12T10:30:35.487Z,6880
2019-05-12T10:34:32.352Z,6564
2019-05-12T10:36:02.868Z,6312
2019-05-12T10:39:03.900Z,6412
2019-05-12T10:42:04.093Z,6408
2019-05-12T10:45:05.971Z,5944
2019-05-12T10:49:02.572Z,5656
2019-05-12T10:50:33.048Z,5652
2019-05-12T10:52:03.569Z,5020
2019-05-12T10:55:04.059Z,4192
2019-05-12T10:58:05.634Z,2776
2019-05-12T11:03:50.206Z,1660
2019-05-12T11:06:33.089Z,1664
2019-05-12T11:09:34.942Z,1792
2019-05-12T11:11:05.426Z,1768
2019-05-12T11:12:35.954Z,1788
2019-05-12T11:14:06.456Z,1772
2019-05-12T11:17:07.481Z,1800
2019-05-12T11:19:51.050Z,1696
2019-05-12T11:21:04.204Z,1640
2019-05-12T11:22:34.721Z,1728
2019-05-12T11:28:36.777Z,1600
2019-05-12T11:30:07.284Z,1544
2019-05-12T11:31:37.801Z,1476
2019-05-12T11:33:08.305Z,1432
2019-05-12T11:34:38.820Z,1420
2019-05-12T11:35:51.991Z,1456
2019-05-12T11:37:05.171Z,1504
2019-05-12T11:38:35.687Z,1448
2019-05-12T11:40:06.209Z,1396
2019-05-12T11:41:36.711Z,1440
2019-05-12T11:43:07.220Z,600
2019-05-12T11:46:08.024Z,4624
2019-05-12T11:47:38.761Z,4696
2019-05-12T11:49:09.277Z,4676
2019-05-12T11:50:39.791Z,4540
2019-05-12T11:51:52.957Z,4472
2019-05-12T11:53:06.133Z,4516
2019-05-12T11:57:37.666Z,4496
2019-05-12T11:59:08.181Z,4492
2019-05-12T12:00:38.693Z,4636
2019-05-12T12:02:09.200Z,4780
2019-05-12T12:05:10.222Z,4984
2019-05-12T12:06:40.742Z,4840
2019-05-12T12:07:53.768Z,4464
2019-05-12T12:09:06.958Z,4584
2019-05-12T12:10:37.467Z,4716
2019-05-12T12:12:07.978Z,4548
2019-05-12T12:13:38.486Z,4628
2019-05-12T12:16:39.516Z,4692
2019-05-12T12:21:11.041Z,6336
2019-05-12T12:23:54.594Z,6296
2019-05-12T12:25:07.628Z,5504
2019-05-12T12:26:38.149Z,5188
2019-05-12T12:28:08.647Z,4736
2019-05-12T12:31:09.684Z,4648
2019-05-12T12:34:10.696Z,2076
2019-05-12T12:35:41.232Z,4136
2019-05-12T12:37:11.728Z,4256
2019-05-12T12:39:55.285Z,4308
2019-05-12T12:44:09.482Z,2056
2019-05-12T12:45:39.990Z,4132
2019-05-12T12:47:10.500Z,4164
2019-05-12T12:48:41.025Z,4224
2019-05-12T12:50:11.526Z,4316
2019-05-12T12:51:42.044Z,4372
2019-05-12T12:53:12.565Z,4336
2019-05-12T12:55:56.120Z,4668
2019-05-12T12:58:39.797Z,4804
2019-05-12T13:00:10.305Z,4692
2019-05-12T13:01:40.809Z,4512
2019-05-12T13:04:41.839Z,4480
2019-05-12T13:07:42.086Z,4340
2019-05-12T13:09:13.402Z,4176
2019-05-12T13:10:43.905Z,4004
2019-05-12T13:11:57.065Z,3892
2019-05-12T13:13:10.248Z,3804
2019-05-12T13:14:40.754Z,3768
2019-05-12T13:16:11.271Z,3748
2019-05-12T13:17:41.791Z,3660
2019-05-12T13:19:12.344Z,3872
2019-05-12T13:20:42.806Z,3720
2019-05-12T13:23:43.082Z,2240
2019-05-12T13:26:44.860Z,3384
2019-05-12T13:29:11.071Z,3372
2019-05-12T13:32:12.097Z,3432
2019-05-12T13:33:42.600Z,2240
2019-05-12T13:35:13.115Z,3536
2019-05-12T13:36:43.635Z,3708
2019-05-12T13:38:14.146Z,2532
2019-05-12T13:39:44.661Z,3972
2019-05-12T13:41:15.170Z,3872
2019-05-12T13:42:45.688Z,3712
2019-05-12T13:43:58.856Z,3456
2019-05-12T13:45:12.039Z,3444
2019-05-12T13:46:42.990Z,3676
2019-05-12T13:48:13.061Z,3636
2019-05-12T13:52:44.610Z,3560
2019-05-12T13:54:15.117Z,3728
2019-05-12T13:55:45.623Z,3708
2019-05-12T13:57:16.141Z,3668
2019-05-12T13:58:46.652Z,2640
2019-05-12T13:59:59.826Z,2476
2019-05-12T14:01:13.006Z,2528
2019-05-12T14:02:43.523Z,2392
2019-05-12T14:05:44.546Z,2412
2019-05-12T14:07:15.060Z,3796
2019-05-12T14:10:16.009Z,3356
2019-05-12T14:11:46.606Z,3648
2019-05-12T14:14:47.062Z,2152
2019-05-12T14:16:00.079Z,2008
2019-05-12T14:17:13.974Z,1980
2019-05-12T14:18:44.487Z,2072
2019-05-12T14:21:45.512Z,2408
2019-05-12T14:24:46.532Z,4196
2019-05-12T14:26:17.062Z,3688
2019-05-12T14:27:47.567Z,3280
2019-05-12T14:29:18.092Z,2104
2019-05-12T14:30:48.619Z,3680
2019-05-12T14:32:01.007Z,2948
2019-05-12T14:33:14.941Z,3984
2019-05-12T14:34:45.464Z,2916
2019-05-12T14:36:15.096Z,3980
2019-05-12T14:37:46.476Z,1992
2019-05-12T14:40:47.509Z,1636
2019-05-12T14:42:18.013Z,1572
2019-05-12T14:43:48.541Z,1484
2019-05-12T14:45:19.392Z,1512
2019-05-12T14:48:02.596Z,3164
2019-05-12T14:49:15.772Z,2960
2019-05-12T14:50:46.281Z,1380
2019-05-12T14:53:47.311Z,2572
2019-05-12T14:55:17.825Z,2744
2019-05-12T14:56:48.333Z,2956
2019-05-12T14:58:18.845Z,2704
2019-05-12T14:59:49.035Z,2772
2019-05-12T15:02:50.384Z,2976
2019-05-12T15:05:16.595Z,3048
2019-05-12T15:08:17.612Z,3052
2019-05-12T15:09:48.138Z,2964
2019-05-12T15:11:18.641Z,2916
2019-05-12T15:12:49.162Z,2904
2019-05-12T15:14:19.673Z,1796
2019-05-12T15:15:50.187Z,1240
2019-05-12T15:17:20.069Z,2800
2019-05-12T15:20:04.242Z,2800
2019-05-12T15:21:17.041Z,2856
2019-05-12T15:22:47.095Z,2428
2019-05-12T15:24:18.443Z,1572
2019-05-12T15:25:48.966Z,1112
2019-05-12T15:27:19.477Z,1112
2019-05-12T15:28:49.099Z,2684
2019-05-12T15:30:20.501Z,1156
2019-05-12T15:31:51.010Z,1168
2019-05-12T15:33:21.529Z,1100
2019-05-12T15:34:52.036Z,2560
2019-05-12T15:36:05.219Z,1344
2019-05-12T15:37:18.038Z,1228
2019-05-12T15:38:48.900Z,2572
2019-05-12T15:41:49.924Z,2672
2019-05-12T15:43:20.438Z,2644
2019-05-12T15:44:50.953Z,2588
2019-05-12T15:46:21.466Z,2560
2019-05-12T15:49:22.496Z,2572
2019-05-12T15:50:52.995Z,2792
2019-05-12T15:52:06.176Z,2712
2019-05-12T15:53:19.346Z,2056
2019-05-12T15:57:50.887Z,2336
2019-05-12T15:59:21.404Z,2352
2019-05-12T16:02:22.429Z,2264
2019-05-12T16:05:23.449Z,2252
2019-05-12T16:06:53.096Z,2112
2019-05-12T16:08:07.134Z,1592
2019-05-12T16:10:50.819Z,2172
2019-05-12T16:12:21.003Z,2148
2019-05-12T16:13:51.846Z,2084
2019-05-12T16:16:52.872Z,2080
2019-05-12T16:18:23.390Z,2056
2019-05-12T16:19:53.897Z,2052
2019-05-12T16:21:24.424Z,2044
2019-05-12T16:22:54.926Z,2044
2019-05-12T16:24:08.093Z,2020
2019-05-12T16:25:21.135Z,1992
2019-05-12T16:26:51.650Z,1976
2019-05-12T16:31:23.190Z,1912
2019-05-12T16:32:53.690Z,1888
2019-05-12T16:34:24.204Z,1860
2019-05-12T16:35:54.723Z,1828
2019-05-12T16:37:25.237Z,1804
2019-05-12T16:38:55.773Z,1780
2019-05-12T16:40:08.925Z,1752
2019-05-12T16:41:22.098Z,1724
2019-05-12T16:42:52.609Z,1700
2019-05-12T16:44:23.119Z,1672
2019-05-12T16:47:24.150Z,1604
2019-05-12T16:48:54.660Z,1576
2019-05-12T16:50:25.171Z,1544
2019-05-12T16:51:55.681Z,1512
2019-05-12T16:53:26.187Z,1460
2019-05-12T16:54:56.807Z,1452
2019-05-12T16:56:09.890Z,1420
2019-05-12T16:58:53.570Z,1364
2019-05-12T17:00:24.076Z,1336
2019-05-12T17:01:54.590Z,1308
2019-05-12T17:03:25.106Z,1284
2019-05-12T17:06:26.146Z,1244
2019-05-12T17:07:56.649Z,1232
2019-05-12T17:09:27.159Z,1240
2019-05-12T17:10:57.674Z,1240
2019-05-12T17:12:10.847Z,1260
2019-05-12T17:14:54.526Z,1336
2019-05-12T17:16:25.043Z,1280
2019-05-12T17:17:55.560Z,1220
2019-05-12T17:19:26.065Z,1144
2019-05-12T17:20:56.579Z,1112
2019-05-12T17:22:27.091Z,1104
2019-05-12T17:23:57.602Z,1124
2019-05-12T17:25:28.122Z,1204
2019-05-12T17:29:24.698Z,1152
2019-05-12T17:32:25.721Z,1100
2019-05-12T17:33:56.238Z,1040
2019-05-12T17:35:26.757Z,1000
2019-05-12T17:36:57.256Z,956
2019-05-12T17:38:27.781Z,908
2019-05-12T17:39:58.302Z,860
2019-05-12T17:41:28.796Z,824
2019-05-12T17:42:59.031Z,796
2019-05-12T17:44:12.479Z,780
2019-05-12T17:45:25.674Z,772
2019-05-12T17:46:56.175Z,760
2019-05-12T17:48:26.683Z,752
2019-05-12T17:49:57.194Z,740
2019-05-12T17:52:58.222Z,716
2019-05-12T17:55:59.241Z,712
2019-05-12T17:57:29.076Z,724
2019-05-12T18:00:13.348Z,752
2019-05-12T18:04:27.507Z,716
2019-05-12T18:07:28.532Z,660
2019-05-12T18:08:59.043Z,624
2019-05-12T18:10:29.575Z,592
2019-05-12T18:12:00.066Z,568
2019-05-12T18:13:30.577Z,536
2019-05-12T18:15:01.088Z,520
2019-05-12T18:16:14.026Z,492
2019-05-12T18:17:27.443Z,460
2019-05-12T18:20:28.465Z,420
2019-05-12T18:21:58.983Z,416
2019-05-12T18:23:29.646Z,420
2019-05-12T18:24:59.998Z,396
2019-05-12T18:26:30.519Z,352
2019-05-12T18:29:31.535Z,288
2019-05-12T18:31:02.007Z,272
2019-05-12T18:32:15.231Z,248
2019-05-12T18:34:58.776Z,216
2019-05-12T18:36:29.298Z,200
2019-05-12T18:39:30.313Z,172
2019-05-12T18:41:00.822Z,156
2019-05-12T18:42:31.340Z,140
2019-05-12T18:44:01.845Z,124
2019-05-12T18:45:32.375Z,112
2019-05-12T18:48:15.091Z,88
2019-05-12T18:50:59.595Z,72
2019-05-12T18:52:30.107Z,60
2019-05-12T18:54:00.096Z,56
2019-05-12T18:55:31.132Z,44
2019-05-12T18:58:32.157Z,32
2019-05-12T19:00:02.665Z,28
2019-05-12T19:01:33.179Z,24
2019-05-12T19:04:16.727Z,16
2019-05-12T19:05:29.759Z,16
2019-05-12T19:08:30.781Z,8
2019-05-12T19:10:01.314Z,12
2019-05-12T19:13:02.031Z,8
2019-05-12T19:14:32.833Z,4
2019-05-12T19:17:33.855Z,0
2019-05-12T19:19:04.373Z,4
2019-05-12T19:20:17.557Z,0
2019-05-12T19:21:30.753Z,4
2019-05-12T19:23:01.023Z,0
2019-05-12T19:24:31.749Z,0
2019-05-12T19:26:02.249Z,4
2019-05-12T19:27:32.767Z,4
2019-05-12T19:29:03.297Z,0
2019-05-12T19:32:04.304Z,0
2019-05-12T19:35:05.323Z,0
2019-05-12T19:36:18.517Z,0
2019-05-12T19:37:31.689Z,0
2019-05-12T19:40:32.756Z,0
2019-05-12T19:42:03.213Z,0
2019-05-12T19:43:33.723Z,0
2019-05-12T19:46:34.753Z,0
2019-05-12T19:48:05.271Z,0
2019-05-12T19:49:35.778Z,0
2019-05-12T19:51:06.287Z,0
2019-05-12T19:52:19.464Z,0
2019-05-12T19:53:32.635Z,0
2019-05-12T19:55:03.153Z,0
2019-05-12T19:56:33.067Z,0
2019-05-12T19:58:04.174Z,0
2019-05-12T19:59:34.690Z,0
2019-05-12T20:01:05.196Z,0
2019-05-12T20:02:35.071Z,4
2019-05-12T20:04:06.226Z,4
2019-05-12T20:05:36.737Z,4
2019-05-12T20:07:07.244Z,4
2019-05-12T20:08:20.443Z,4
2019-05-12T20:09:33.600Z,4
2019-05-12T20:11:04.114Z,4
2019-05-12T20:12:34.619Z,4
2019-05-12T20:14:05.140Z,0
2019-05-12T20:15:35.653Z,4
2019-05-12T20:17:06.289Z,0
2019-05-12T20:18:36.980Z,0
2019-05-12T20:21:37.697Z,0
2019-05-12T20:23:08.208Z,0
2019-05-12T20:24:21.239Z,0
2019-05-12T20:25:34.000Z,4
2019-05-12T20:27:04.934Z,0
2019-05-12T20:30:05.960Z,0
2019-05-12T20:31:36.477Z,0
2019-05-12T20:33:06.981Z,0
2019-05-12T20:34:37.490Z,0
2019-05-12T20:36:08.000Z,0
2019-05-12T20:37:38.545Z,0
2019-05-12T20:39:09.027Z,0
2019-05-12T20:40:22.020Z,0
2019-05-12T20:41:35.271Z,0
2019-05-12T20:43:05.748Z,0
2019-05-12T20:44:36.263Z,0
2019-05-12T20:46:06.077Z,0
2019-05-12T20:49:07.806Z,0
2019-05-12T20:50:38.315Z,0
2019-05-12T20:52:08.825Z,0
2019-05-12T20:53:39.334Z,0
2019-05-12T20:55:09.857Z,0
2019-05-12T20:56:23.059Z,0
2019-05-12T20:57:36.201Z,0
2019-05-12T20:59:06.720Z,0
2019-05-12T21:00:37.022Z,0
2019-05-12T21:02:07.073Z,0
2019-05-12T21:03:38.250Z,0
2019-05-12T21:05:08.758Z,0
2019-05-12T21:06:39.002Z,0
2019-05-12T21:08:09.785Z,0
2019-05-12T21:11:10.814Z,0
2019-05-12T21:13:37.030Z,0
2019-05-12T21:16:38.045Z,0
2019-05-12T21:19:39.067Z,0
2019-05-12T21:21:09.580Z,0
2019-05-12T21:22:40.101Z,0
2019-05-12T21:24:10.605Z,0
2019-05-12T21:27:11.631Z,0
2019-05-12T21:28:24.802Z,0
2019-05-12T21:29:37.986Z,0
2019-05-12T21:31:08.512Z,0
2019-05-12T21:34:09.545Z,0
2019-05-12T21:35:40.003Z,0
2019-05-12T21:38:41.048Z,0
2019-05-12T21:40:11.569Z,0
2019-05-12T21:41:42.093Z,0
2019-05-12T21:43:12.058Z,0
2019-05-12T21:44:25.774Z,0
2019-05-12T21:47:09.306Z,0
2019-05-12T21:50:10.339Z,0
2019-05-12T21:51:40.847Z,0
2019-05-12T21:53:11.368Z,0
2019-05-12T21:56:12.039Z,0
2019-05-12T21:57:42.898Z,0
2019-05-12T21:59:13.468Z,0
2019-05-12T22:00:26.587Z,0
2019-05-12T22:01:39.759Z,0
2019-05-12T22:03:10.303Z,0
2019-05-12T22:06:11.302Z,0
2019-05-12T22:07:41.807Z,0
2019-05-12T22:09:12.323Z,0
2019-05-12T22:10:42.837Z,0
2019-05-12T22:15:14.368Z,0
2019-05-12T22:16:27.543Z,0
2019-05-12T22:17:40.723Z,0
2019-05-12T22:19:12.773Z,0
2019-05-12T22:20:41.741Z,0
2019-05-12T22:22:12.002Z,0
2019-05-12T22:23:42.774Z,0
2019-05-12T22:25:13.028Z,0
2019-05-12T22:29:44.817Z,0
2019-05-12T22:31:15.334Z,0
2019-05-12T22:32:28.051Z,0
2019-05-12T22:33:41.054Z,0
2019-05-12T22:35:12.053Z,0
2019-05-12T22:36:42.056Z,0
2019-05-12T22:38:13.079Z,0
2019-05-12T22:39:43.059Z,0
2019-05-12T22:41:14.108Z,0
2019-05-12T22:42:44.620Z,0
2019-05-12T22:47:16.159Z,0
2019-05-12T22:48:29.327Z,0
2019-05-12T22:49:42.512Z,0
2019-05-12T22:51:13.019Z,0
2019-05-12T22:52:43.533Z,0
2019-05-12T22:54:14.045Z,0
2019-05-12T22:55:44.570Z,0
2019-05-12T22:57:15.061Z,0
2019-05-12T22:58:45.571Z,0
2019-05-12T23:03:17.133Z,0
2019-05-12T23:04:30.288Z,0
2019-05-12T23:07:13.982Z,0
2019-05-12T23:08:44.497Z,0
2019-05-12T23:10:15.003Z,0
2019-05-12T23:13:16.002Z,0
2019-05-12T23:14:46.534Z,0
2019-05-12T23:16:17.058Z,0
2019-05-12T23:17:47.561Z,0
2019-05-12T23:19:18.080Z,0
2019-05-12T23:20:31.254Z,0
2019-05-12T23:23:14.940Z,0
2019-05-12T23:24:45.456Z,0
2019-05-12T23:26:15.976Z,0
2019-05-12T23:27:46.473Z,0
2019-05-12T23:29:16.984Z,0
2019-05-12T23:32:18.010Z,0
2019-05-12T23:33:48.755Z,0
2019-05-12T23:36:32.077Z,0
2019-05-12T23:37:45.247Z,0
2019-05-12T23:39:15.757Z,0
2019-05-12T23:40:46.276Z,0
2019-05-12T23:42:16.796Z,0
2019-05-12T23:43:47.378Z,0
2019-05-12T23:45:17.813Z,0
2019-05-12T23:46:48.329Z,0
2019-05-12T23:48:18.838Z,0
2019-05-12T23:51:19.859Z,0
2019-05-12T23:52:33.041Z,0
2019-05-12T23:53:46.209Z,0
2019-05-12T23:56:47.230Z,0
2019-05-12T23:58:17.745Z,0
2019-05-12T23:59:48.259Z,0
